createdAt,value
2019-05-20T00:00:20.657Z,15.36
2019-05-20T00:02:50.649Z,15.36
2019-05-20T00:05:20.259Z,15.45
2019-05-20T00:07:51.562Z,15.50
2019-05-20T00:10:22.060Z,15.51
2019-05-20T00:12:51.900Z,15.51
2019-05-20T00:15:21.796Z,15.43
2019-05-20T00:17:51.532Z,15.38
2019-05-20T00:20:21.188Z,15.40
2019-05-20T00:23:10.060Z,15.36
2019-05-20T00:25:39.628Z,15.27
2019-05-20T00:28:09.260Z,15.21
2019-05-20T00:30:38.839Z,15.17
2019-05-20T00:33:08.354Z,15.10
2019-05-20T00:35:37.903Z,15.05
2019-05-20T00:38:07.472Z,15.04
2019-05-20T00:40:37.038Z,15.06
2019-05-20T00:43:06.659Z,15.04
2019-05-20T00:45:36.215Z,14.93
2019-05-20T00:48:05.755Z,14.88
2019-05-20T00:50:35.828Z,14.88
2019-05-20T00:53:05.386Z,14.84
2019-05-20T00:55:35.249Z,14.80
2019-05-20T00:58:04.888Z,14.78
2019-05-20T01:00:34.587Z,14.79
2019-05-20T01:03:04.264Z,14.79
2019-05-20T01:05:33.801Z,14.78
2019-05-20T01:08:03.386Z,14.70
2019-05-20T01:10:33.801Z,14.68
2019-05-20T01:13:03.393Z,14.68
2019-05-20T01:15:33.300Z,14.68
2019-05-20T01:18:02.860Z,14.71
2019-05-20T01:20:32.400Z,14.70
2019-05-20T01:23:01.960Z,14.66
2019-05-20T01:25:31.512Z,14.60
2019-05-20T01:28:01.080Z,14.53
2019-05-20T01:30:30.639Z,14.55
2019-05-20T01:33:12.859Z,14.58
2019-05-20T01:35:31.522Z,14.59
2019-05-20T01:38:01.054Z,14.57
2019-05-20T01:40:30.617Z,14.59
2019-05-20T01:43:00.165Z,14.60
2019-05-20T01:45:29.708Z,14.65
2019-05-20T01:47:59.292Z,14.68
2019-05-20T01:50:28.837Z,14.68
2019-05-20T01:52:58.445Z,14.67
2019-05-20T01:55:27.989Z,14.65
2019-05-20T01:57:57.562Z,14.62
2019-05-20T02:00:27.135Z,14.58
2019-05-20T02:02:56.758Z,14.59
2019-05-20T02:05:26.485Z,14.56
2019-05-20T02:07:56.640Z,14.52
2019-05-20T02:10:26.193Z,14.48
2019-05-20T02:12:55.780Z,14.43
2019-05-20T02:15:32.400Z,14.33
2019-05-20T02:18:01.936Z,14.30
2019-05-20T02:20:31.505Z,14.24
2019-05-20T02:23:16.727Z,14.24
2019-05-20T02:25:48.099Z,14.22
2019-05-20T02:28:17.723Z,14.14
2019-05-20T02:30:47.291Z,14.15
2019-05-20T02:33:16.970Z,14.12
2019-05-20T02:35:46.504Z,14.15
2019-05-20T02:38:16.125Z,14.12
2019-05-20T02:40:45.633Z,14.09
2019-05-20T02:43:15.415Z,14.13
2019-05-20T02:45:45.012Z,14.15
2019-05-20T02:48:14.643Z,14.17
2019-05-20T02:50:44.237Z,14.16
2019-05-20T02:53:13.898Z,14.12
2019-05-20T02:55:43.634Z,14.11
2019-05-20T02:58:13.217Z,14.11
2019-05-20T03:00:42.762Z,14.09
2019-05-20T03:03:12.327Z,14.11
2019-05-20T03:05:41.877Z,14.06
2019-05-20T03:08:11.452Z,14.07
2019-05-20T03:10:41.005Z,14.07
2019-05-20T03:13:10.639Z,14.03
2019-05-20T03:15:40.364Z,14.03
2019-05-20T03:18:09.914Z,14.03
2019-05-20T03:20:39.779Z,14.05
2019-05-20T03:23:09.302Z,14.03
2019-05-20T03:25:39.034Z,14.01
2019-05-20T03:28:08.571Z,13.99
2019-05-20T03:30:38.166Z,13.93
2019-05-20T03:33:07.781Z,13.89
2019-05-20T03:35:37.339Z,13.94
2019-05-20T03:38:06.904Z,13.97
2019-05-20T03:40:36.446Z,13.98
2019-05-20T03:43:06.014Z,13.97
2019-05-20T03:45:35.566Z,13.93
2019-05-20T03:48:05.115Z,13.91
2019-05-20T03:50:34.762Z,13.71
2019-05-20T03:53:04.488Z,13.54
2019-05-20T03:55:34.033Z,13.42
2019-05-20T03:58:03.669Z,13.40
2019-05-20T04:00:48.027Z,13.43
2019-05-20T04:03:17.810Z,13.36
2019-05-20T04:05:47.347Z,13.31
2019-05-20T04:08:17.259Z,13.23
2019-05-20T04:10:46.879Z,13.18
2019-05-20T04:13:16.516Z,13.22
2019-05-20T04:15:46.073Z,13.21
2019-05-20T04:18:15.648Z,13.24
2019-05-20T04:20:45.221Z,13.24
2019-05-20T04:23:14.831Z,13.19
2019-05-20T04:25:44.432Z,13.19
2019-05-20T04:28:14.073Z,13.21
2019-05-20T04:30:43.718Z,13.19
2019-05-20T04:33:13.315Z,13.19
2019-05-20T04:35:42.890Z,13.22
2019-05-20T04:38:12.707Z,13.27
2019-05-20T04:40:42.493Z,13.32
2019-05-20T04:43:12.418Z,13.38
2019-05-20T04:45:42.636Z,13.44
2019-05-20T04:48:13.937Z,13.51
2019-05-20T04:50:43.722Z,13.55
2019-05-20T04:53:13.384Z,13.53
2019-05-20T04:55:43.043Z,13.41
2019-05-20T04:58:12.642Z,13.34
2019-05-20T05:00:54.956Z,13.31
2019-05-20T05:03:24.949Z,13.37
2019-05-20T05:05:54.865Z,13.44
2019-05-20T05:08:24.711Z,13.50
2019-05-20T05:10:54.800Z,13.55
2019-05-20T05:13:24.554Z,13.61
2019-05-20T05:15:54.289Z,13.69
2019-05-20T05:18:24.106Z,13.72
2019-05-20T05:20:53.735Z,13.75
2019-05-20T05:23:23.901Z,13.76
2019-05-20T05:25:53.603Z,13.85
2019-05-20T05:28:23.336Z,13.88
2019-05-20T05:30:53.074Z,13.90
2019-05-20T05:33:22.939Z,13.93
2019-05-20T05:35:53.837Z,13.89
2019-05-20T05:38:23.736Z,13.87
2019-05-20T05:40:53.296Z,13.81
2019-05-20T05:43:22.884Z,13.83
2019-05-20T05:45:52.499Z,13.88
2019-05-20T05:48:22.130Z,13.92
2019-05-20T05:50:51.680Z,13.93
2019-05-20T05:53:21.243Z,13.98
2019-05-20T05:55:50.801Z,13.98
2019-05-20T05:58:20.349Z,13.93
2019-05-20T06:00:50.022Z,13.91
2019-05-20T06:03:19.674Z,13.98
2019-05-20T06:05:49.230Z,14.00
2019-05-20T06:08:18.941Z,14.05
2019-05-20T06:10:48.716Z,14.00
2019-05-20T06:13:18.328Z,13.98
2019-05-20T06:15:48.214Z,14.03
2019-05-20T06:18:17.792Z,14.04
2019-05-20T06:20:47.450Z,14.09
2019-05-20T06:23:17.083Z,14.17
2019-05-20T06:25:46.953Z,14.20
2019-05-20T06:28:16.582Z,14.20
2019-05-20T06:30:47.205Z,14.21
2019-05-20T06:33:17.112Z,14.24
2019-05-20T06:35:46.831Z,14.27
2019-05-20T06:38:18.067Z,14.33
2019-05-20T06:40:48.439Z,14.33
2019-05-20T06:43:18.005Z,14.33
2019-05-20T06:45:47.595Z,14.31
2019-05-20T06:48:17.195Z,14.32
2019-05-20T06:50:46.742Z,14.35
2019-05-20T06:53:16.340Z,14.39
2019-05-20T06:55:46.188Z,14.41
2019-05-20T06:58:15.773Z,14.47
2019-05-20T07:00:45.356Z,14.48
2019-05-20T07:03:15.007Z,14.48
2019-05-20T07:05:44.781Z,14.54
2019-05-20T07:08:14.412Z,14.57
2019-05-20T07:10:44.982Z,14.58
2019-05-20T07:13:16.387Z,14.58
2019-05-20T07:15:45.791Z,14.54
2019-05-20T07:18:15.431Z,14.52
2019-05-20T07:20:44.974Z,14.52
2019-05-20T07:23:14.662Z,14.59
2019-05-20T07:25:45.814Z,14.64
2019-05-20T07:28:15.385Z,14.71
2019-05-20T07:30:45.108Z,14.77
2019-05-20T07:33:14.989Z,14.74
2019-05-20T07:35:45.015Z,14.77
2019-05-20T07:38:14.601Z,14.79
2019-05-20T07:40:44.197Z,14.80
2019-05-20T07:43:13.750Z,14.80
2019-05-20T07:45:43.688Z,14.86
2019-05-20T07:48:13.508Z,14.96
2019-05-20T07:50:43.852Z,15.03
2019-05-20T07:53:14.243Z,15.09
2019-05-20T07:55:57.371Z,15.08
2019-05-20T07:58:33.058Z,15.08
2019-05-20T08:01:01.054Z,15.04
2019-05-20T08:03:30.631Z,15.10
2019-05-20T08:06:00.191Z,15.09
2019-05-20T08:08:29.769Z,15.03
2019-05-20T08:10:59.399Z,15.09
2019-05-20T08:13:29.024Z,15.12
2019-05-20T08:15:58.601Z,15.15
2019-05-20T08:18:28.166Z,15.27
2019-05-20T08:20:57.803Z,15.30
2019-05-20T08:23:27.442Z,15.34
2019-05-20T08:25:57.096Z,15.35
2019-05-20T08:28:26.672Z,15.31
2019-05-20T08:30:56.309Z,15.35
2019-05-20T08:33:26.108Z,15.40
2019-05-20T08:35:55.686Z,15.40
2019-05-20T08:38:25.250Z,15.45
2019-05-20T08:40:55.208Z,15.52
2019-05-20T08:43:24.806Z,15.54
2019-05-20T08:45:54.360Z,15.60
2019-05-20T08:48:24.128Z,15.64
2019-05-20T08:50:53.953Z,15.64
2019-05-20T08:53:23.497Z,15.65
2019-05-20T08:55:53.054Z,15.69
2019-05-20T08:58:22.659Z,15.63
2019-05-20T09:00:52.229Z,15.62
2019-05-20T09:03:21.767Z,15.67
2019-05-20T09:05:51.561Z,15.70
2019-05-20T09:08:21.128Z,15.70
2019-05-20T09:10:50.710Z,15.66
2019-05-20T09:13:20.304Z,15.56
2019-05-20T09:15:49.896Z,15.61
2019-05-20T09:18:19.511Z,15.58
2019-05-20T09:20:49.051Z,15.53
2019-05-20T09:23:18.612Z,15.55
2019-05-20T09:25:48.197Z,15.53
2019-05-20T09:28:17.730Z,15.55
2019-05-20T09:30:48.483Z,15.55
2019-05-20T09:33:18.414Z,15.56
2019-05-20T09:35:48.058Z,15.62
2019-05-20T09:38:21.047Z,15.58
2019-05-20T09:40:51.276Z,15.64
2019-05-20T09:43:20.773Z,15.61
2019-05-20T09:46:06.188Z,15.53
2019-05-20T09:48:25.280Z,15.49
2019-05-20T09:50:55.212Z,15.56
2019-05-20T09:53:25.829Z,15.52
2019-05-20T09:55:55.536Z,15.61
2019-05-20T10:01:14.120Z,15.63
2019-05-20T10:03:43.842Z,15.72
2019-05-20T10:06:13.379Z,15.73
2019-05-20T10:08:44.910Z,15.75
2019-05-20T10:11:15.104Z,15.75
2019-05-20T10:13:45.137Z,15.78
2019-05-20T10:16:15.246Z,15.81
2019-05-20T10:18:45.478Z,15.80
2019-05-20T10:21:15.021Z,15.82
2019-05-20T10:23:44.892Z,15.85
2019-05-20T10:26:15.798Z,15.86
2019-05-20T10:28:47.661Z,15.85
2019-05-20T10:31:17.921Z,15.82
2019-05-20T10:33:48.350Z,15.89
2019-05-20T10:36:19.117Z,15.99
2019-05-20T10:38:58.328Z,16.04
2019-05-20T10:41:23.795Z,16.09
2019-05-20T10:43:54.401Z,16.10
2019-05-20T10:46:27.237Z,16.12
2019-05-20T10:48:58.877Z,16.19
2019-05-20T10:51:29.679Z,16.16
2019-05-20T10:54:00.271Z,16.20
2019-05-20T10:56:29.872Z,16.24
2019-05-20T10:59:00.050Z,16.26
2019-05-20T11:01:31.579Z,16.30
2019-05-20T11:04:02.103Z,16.31
2019-05-20T11:06:31.903Z,16.28
2019-05-20T11:09:13.584Z,16.33
2019-05-20T11:11:34.597Z,16.35
2019-05-20T11:14:05.960Z,16.44
2019-05-20T11:16:37.018Z,16.47
2019-05-20T11:19:07.673Z,16.50
2019-05-20T11:21:38.731Z,16.54
2019-05-20T11:24:09.695Z,16.63
2019-05-20T11:26:41.323Z,16.69
2019-05-20T11:29:13.709Z,16.63
2019-05-20T11:31:44.442Z,16.63
2019-05-20T11:34:15.691Z,16.71
2019-05-20T11:36:47.078Z,16.74
2019-05-20T11:39:32.538Z,16.80
2019-05-20T11:41:54.156Z,16.76
2019-05-20T11:44:24.085Z,16.82
2019-05-20T11:46:54.696Z,16.77
2019-05-20T11:49:29.299Z,16.88
2019-05-20T11:51:59.090Z,16.86
2019-05-20T11:54:29.617Z,16.95
2019-05-20T11:57:00.547Z,16.94
2019-05-20T11:59:31.741Z,16.90
2019-05-20T12:02:04.224Z,16.96
2019-05-20T12:04:35.703Z,16.97
2019-05-20T12:07:08.563Z,16.97
2019-05-20T12:09:48.862Z,17.01
2019-05-20T12:12:12.602Z,17.07
2019-05-20T12:14:43.584Z,17.06
2019-05-20T12:17:15.022Z,17.09
2019-05-20T12:19:46.573Z,17.10
2019-05-20T12:22:19.497Z,17.11
2019-05-20T12:24:51.844Z,17.16
2019-05-20T12:27:23.290Z,17.24
2019-05-20T12:29:54.728Z,17.32
2019-05-20T12:32:27.078Z,17.31
2019-05-20T12:34:59.461Z,17.34
2019-05-20T12:37:30.373Z,17.35
2019-05-20T12:40:06.890Z,17.34
2019-05-20T12:42:33.923Z,17.40
2019-05-20T12:45:05.480Z,17.46
2019-05-20T12:47:36.743Z,17.53
2019-05-20T12:50:12.789Z,17.47
2019-05-20T12:52:44.179Z,17.54
2019-05-20T12:55:15.570Z,17.59
2019-05-20T12:57:46.529Z,17.59
2019-05-20T13:00:19.788Z,17.61
2019-05-20T13:02:51.282Z,17.66
2019-05-20T13:05:22.481Z,17.65
2019-05-20T13:07:53.827Z,17.70
2019-05-20T13:10:29.814Z,17.69
2019-05-20T13:12:58.014Z,17.64
2019-05-20T13:15:28.438Z,17.67
2019-05-20T13:18:00.103Z,17.69
2019-05-20T13:20:31.801Z,17.73
2019-05-20T13:23:07.279Z,17.77
2019-05-20T13:25:39.103Z,17.78
2019-05-20T13:28:11.761Z,17.80
2019-05-20T13:30:43.010Z,17.84
2019-05-20T13:33:14.638Z,17.90
2019-05-20T13:35:46.873Z,17.86
2019-05-20T13:38:19.050Z,17.88
2019-05-20T13:40:50.524Z,17.89
2019-05-20T13:43:20.340Z,17.92
2019-05-20T13:45:52.564Z,17.92
2019-05-20T13:48:24.516Z,17.91
2019-05-20T13:50:57.643Z,17.91
2019-05-20T13:53:31.373Z,17.97
2019-05-20T13:56:02.850Z,17.97
2019-05-20T13:58:34.363Z,18.00
2019-05-20T14:01:05.490Z,18.03
2019-05-20T14:03:38.501Z,18.01
2019-05-20T14:06:09.626Z,18.05
2019-05-20T14:08:41.030Z,18.03
2019-05-20T14:11:12.248Z,17.97
2019-05-20T14:13:43.257Z,17.94
2019-05-20T14:16:13.530Z,17.96
2019-05-20T14:18:45.085Z,17.93
2019-05-20T14:21:16.261Z,18.00
2019-05-20T14:23:46.988Z,17.93
2019-05-20T14:26:17.364Z,17.95
2019-05-20T14:28:48.730Z,17.92
2019-05-20T14:31:18.808Z,17.87
2019-05-20T14:33:50.441Z,17.80
2019-05-20T14:36:38.816Z,17.78
2019-05-20T14:38:52.575Z,17.83
2019-05-20T14:41:23.351Z,17.82
2019-05-20T14:43:54.801Z,17.85
2019-05-20T14:46:26.068Z,17.85
2019-05-20T14:49:01.971Z,17.77
2019-05-20T14:51:30.598Z,17.82
2019-05-20T14:54:01.912Z,17.88
2019-05-20T14:56:34.251Z,17.89
2019-05-20T14:59:05.737Z,17.91
2019-05-20T15:01:38.741Z,17.94
2019-05-20T15:04:10.604Z,17.92
2019-05-20T15:06:40.852Z,17.94
2019-05-20T15:09:10.599Z,17.97
2019-05-20T15:11:41.708Z,17.98
2019-05-20T15:14:13.434Z,17.96
2019-05-20T15:16:46.034Z,17.92
2019-05-20T15:19:16.034Z,17.84
2019-05-20T15:21:45.935Z,17.84
2019-05-20T15:24:15.868Z,17.77
2019-05-20T15:26:48.048Z,17.88
2019-05-20T15:29:28.100Z,17.88
2019-05-20T15:31:52.650Z,17.87
2019-05-20T15:34:26.785Z,17.92
2019-05-20T15:36:57.876Z,17.84
2019-05-20T15:39:29.141Z,17.84
2019-05-20T15:41:59.974Z,17.83
2019-05-20T15:44:30.999Z,17.76
2019-05-20T15:47:02.108Z,17.75
2019-05-20T15:49:35.342Z,17.73
2019-05-20T15:52:07.182Z,17.70
2019-05-20T15:54:39.345Z,17.63
2019-05-20T15:57:10.020Z,17.63
2019-05-20T15:59:45.861Z,17.71
2019-05-20T16:02:15.615Z,17.61
2019-05-20T16:04:46.092Z,17.58
2019-05-20T16:07:18.079Z,17.57
2019-05-20T16:09:50.981Z,17.67
2019-05-20T16:12:20.675Z,17.68
2019-05-20T16:14:51.843Z,17.72
2019-05-20T16:17:21.703Z,17.70
2019-05-20T16:19:52.011Z,17.61
2019-05-20T16:22:23.994Z,17.61
2019-05-20T16:24:55.199Z,17.63
2019-05-20T16:27:26.003Z,17.61
2019-05-20T16:30:06.263Z,17.56
2019-05-20T16:32:30.663Z,17.58
2019-05-20T16:35:02.790Z,17.49
2019-05-20T16:37:33.694Z,17.55
2019-05-20T16:40:09.689Z,17.43
2019-05-20T16:42:40.534Z,17.47
2019-05-20T16:45:12.574Z,17.48
2019-05-20T16:47:43.768Z,17.40
2019-05-20T16:50:15.071Z,17.46
2019-05-20T16:52:46.356Z,17.52
2019-05-20T16:55:17.874Z,17.50
2019-05-20T16:57:48.950Z,17.45
2019-05-20T17:00:31.371Z,17.40
2019-05-20T17:02:55.065Z,17.36
2019-05-20T17:05:25.645Z,17.36
2019-05-20T17:07:56.970Z,17.28
2019-05-20T17:10:28.493Z,17.31
2019-05-20T17:12:59.757Z,17.24
2019-05-20T17:15:31.262Z,17.28
2019-05-20T17:18:01.181Z,17.34
2019-05-20T17:20:33.054Z,17.42
2019-05-20T17:23:02.787Z,17.31
2019-05-20T17:25:32.376Z,17.29
2019-05-20T17:28:03.103Z,17.31
2019-05-20T17:30:44.358Z,17.30
2019-05-20T17:33:06.294Z,17.36
2019-05-20T17:35:37.336Z,17.41
2019-05-20T17:38:08.096Z,17.30
2019-05-20T17:40:40.636Z,17.30
2019-05-20T17:43:12.085Z,17.33
2019-05-20T17:45:43.561Z,17.32
2019-05-20T17:48:16.692Z,17.34
2019-05-20T17:50:46.315Z,17.41
2019-05-20T17:53:15.906Z,17.40
2019-05-20T17:55:47.210Z,17.34
2019-05-20T17:58:18.163Z,17.33
2019-05-20T18:00:49.082Z,17.37
2019-05-20T18:03:20.368Z,17.41
2019-05-20T18:05:49.904Z,17.39
2019-05-20T18:08:19.477Z,17.39
2019-05-20T18:10:49.046Z,17.45
2019-05-20T18:13:18.649Z,17.43
2019-05-20T18:15:48.198Z,17.43
2019-05-20T18:18:17.774Z,17.46
2019-05-20T18:20:47.595Z,17.41
2019-05-20T18:23:17.271Z,17.36
2019-05-20T18:25:47.634Z,17.41
2019-05-20T18:28:20.009Z,17.40
2019-05-20T18:30:49.815Z,17.32
2019-05-20T18:33:19.542Z,17.41
2019-05-20T18:35:49.178Z,17.42
2019-05-20T18:38:18.740Z,17.45
2019-05-20T18:40:49.699Z,17.45
2019-05-20T18:43:19.273Z,17.39
2019-05-20T18:45:48.925Z,17.41
2019-05-20T18:48:18.530Z,17.35
2019-05-20T18:50:48.088Z,17.37
2019-05-20T18:53:17.736Z,17.35
2019-05-20T18:55:47.400Z,17.31
2019-05-20T18:58:18.365Z,17.34
2019-05-20T19:00:48.000Z,17.35
2019-05-20T19:03:17.667Z,17.30
2019-05-20T19:05:59.628Z,17.29
2019-05-20T19:11:28.205Z,17.25
2019-05-20T19:14:00.899Z,17.22
2019-05-20T19:16:31.766Z,17.17
2019-05-20T19:19:03.437Z,17.22
2019-05-20T19:21:34.803Z,17.21
2019-05-20T19:24:06.257Z,17.16
2019-05-20T19:26:37.268Z,17.18
2019-05-20T19:29:08.320Z,17.14
2019-05-20T19:31:39.674Z,17.11
2019-05-20T19:34:11.121Z,17.13
2019-05-20T19:36:42.458Z,17.15
2019-05-20T19:39:13.277Z,17.15
2019-05-20T19:41:44.857Z,17.16
2019-05-20T19:44:15.779Z,17.15
2019-05-20T19:46:46.627Z,17.13
2019-05-20T19:49:17.536Z,17.11
2019-05-20T19:51:51.545Z,17.10
2019-05-20T19:54:23.213Z,17.10
2019-05-20T19:56:53.699Z,17.16
2019-05-20T19:59:25.058Z,17.11
2019-05-20T20:01:57.094Z,17.11
2019-05-20T20:04:27.607Z,17.00
2019-05-20T20:06:58.354Z,16.98
2019-05-20T20:09:27.991Z,16.97
2019-05-20T20:11:57.683Z,16.96
2019-05-20T20:14:29.296Z,17.00
2019-05-20T20:17:00.990Z,16.90
2019-05-20T20:19:34.973Z,16.79
2019-05-20T20:22:06.054Z,16.85
2019-05-20T20:24:37.451Z,16.88
2019-05-20T20:27:08.315Z,16.86
2019-05-20T20:29:39.247Z,16.79
2019-05-20T20:32:10.650Z,16.80
2019-05-20T20:34:41.538Z,16.80
2019-05-20T20:37:11.389Z,16.85
2019-05-20T20:39:42.807Z,16.85
2019-05-20T20:42:13.898Z,16.81
2019-05-20T20:44:45.840Z,16.78
2019-05-20T20:47:15.744Z,16.78
2019-05-20T20:49:49.366Z,16.71
2019-05-20T20:52:20.391Z,16.70
2019-05-20T20:54:52.072Z,16.66
2019-05-20T20:57:23.293Z,16.67
2019-05-20T20:59:53.988Z,16.61
2019-05-20T21:02:23.732Z,16.61
2019-05-20T21:04:54.887Z,16.50
2019-05-20T21:07:25.623Z,16.43
2019-05-20T21:10:04.356Z,16.46
2019-05-20T21:12:31.337Z,16.35
2019-05-20T21:15:02.346Z,16.33
2019-05-20T21:17:32.046Z,16.36
2019-05-20T21:20:01.692Z,16.37
2019-05-20T21:22:31.442Z,16.44
2019-05-20T21:25:01.031Z,16.52
2019-05-20T21:27:30.615Z,16.50
2019-05-20T21:30:00.222Z,16.43
2019-05-20T21:32:29.754Z,16.44
2019-05-20T21:35:00.629Z,16.42
2019-05-20T21:37:30.165Z,16.35
2019-05-20T21:39:59.801Z,16.36
2019-05-20T21:42:29.369Z,16.26
2019-05-20T21:44:59.725Z,16.24
2019-05-20T21:47:29.296Z,16.21
2019-05-20T21:49:58.843Z,16.24
2019-05-20T21:52:29.304Z,16.24
2019-05-20T21:54:58.910Z,16.18
2019-05-20T21:57:28.866Z,16.21
2019-05-20T21:59:59.571Z,16.23
2019-05-20T22:02:29.194Z,16.13
2019-05-20T22:04:58.750Z,16.13
2019-05-20T22:07:28.360Z,16.18
2019-05-20T22:10:00.946Z,16.17
2019-05-20T22:12:30.492Z,16.16
2019-05-20T22:15:00.296Z,16.17
2019-05-20T22:17:29.939Z,16.06
2019-05-20T22:20:00.684Z,16.10
2019-05-20T22:22:30.016Z,16.12
2019-05-20T22:24:59.603Z,16.09
2019-05-20T22:27:29.155Z,16.07
2019-05-20T22:29:58.784Z,16.00
2019-05-20T22:32:28.302Z,15.97
2019-05-20T22:34:57.875Z,15.93
2019-05-20T22:37:41.473Z,15.95
2019-05-20T22:40:11.464Z,15.96
2019-05-20T22:42:41.051Z,16.01
2019-05-20T22:45:10.943Z,15.97
2019-05-20T22:47:40.522Z,15.94
2019-05-20T22:50:10.204Z,16.00
2019-05-20T22:52:39.885Z,16.02
2019-05-20T22:55:11.858Z,15.97
2019-05-20T22:57:41.429Z,15.98
2019-05-20T23:00:11.883Z,15.92
2019-05-20T23:02:41.439Z,15.87
2019-05-20T23:05:16.416Z,15.92
2019-05-20T23:07:46.646Z,15.91
2019-05-20T23:10:16.447Z,15.91
2019-05-20T23:12:45.997Z,15.92
2019-05-20T23:15:15.821Z,15.88
2019-05-20T23:17:45.466Z,15.79
2019-05-20T23:20:15.163Z,15.78
2019-05-20T23:22:45.729Z,15.79
2019-05-20T23:25:16.581Z,15.82
2019-05-20T23:27:46.243Z,15.73
2019-05-20T23:30:16.129Z,15.74
2019-05-20T23:32:45.708Z,15.67
2019-05-20T23:35:15.351Z,15.72
2019-05-20T23:37:45.846Z,15.60
2019-05-20T23:40:15.749Z,15.60
2019-05-20T23:42:46.163Z,15.50
2019-05-20T23:45:16.241Z,15.36
2019-05-20T23:47:46.170Z,15.23
2019-05-20T23:50:15.957Z,15.17
2019-05-20T23:52:45.568Z,15.21
2019-05-20T23:55:16.461Z,15.19
2019-05-20T23:57:45.978Z,15.10
